createdAt,value
2022-12-25T00:01:33.281Z,81.18
2022-12-25T00:04:00.865Z,81.49
2022-12-25T00:06:28.782Z,81.79
2022-12-25T00:08:56.286Z,81.73
2022-12-25T00:11:23.554Z,81.77
2022-12-25T00:13:51.396Z,82.21
2022-12-25T00:16:23.854Z,82.16
2022-12-25T00:18:52.302Z,82.52
2022-12-25T00:21:20.776Z,82.26
2022-12-25T00:23:49.053Z,82.04
2022-12-25T00:26:17.880Z,82.65
2022-12-25T00:28:45.589Z,82.77
2022-12-25T00:31:15.873Z,83.12
2022-12-25T00:33:44.901Z,83.17
2022-12-25T00:36:14.398Z,83.03
2022-12-25T00:38:42.802Z,82.93
2022-12-25T00:41:12.889Z,82.53
2022-12-25T00:43:42.322Z,82.39
2022-12-25T00:46:11.145Z,82.45
2022-12-25T00:48:39.205Z,82.38
2022-12-25T00:51:08.737Z,82.39
2022-12-25T00:53:36.399Z,82.52
2022-12-25T00:56:05.904Z,82.27
2022-12-25T00:58:34.621Z,82.63
2022-12-25T01:01:03.400Z,82.57
2022-12-25T01:03:31.064Z,82.49
2022-12-25T01:06:01.790Z,82.30
2022-12-25T01:08:33.659Z,82.25
2022-12-25T01:11:09.302Z,82.39
2022-12-25T01:13:37.584Z,81.91
2022-12-25T01:16:12.468Z,81.65
2022-12-25T01:18:40.343Z,81.50
2022-12-25T01:21:11.610Z,81.55
2022-12-25T01:23:39.853Z,81.34
2022-12-25T01:26:09.197Z,81.42
2022-12-25T01:28:37.461Z,80.92
2022-12-25T01:31:05.610Z,81.18
2022-12-25T01:33:33.321Z,81.00
2022-12-25T01:36:00.842Z,81.28
2022-12-25T01:38:28.590Z,81.13
2022-12-25T01:40:56.415Z,81.10
2022-12-25T01:43:26.520Z,81.09
2022-12-25T01:45:54.599Z,81.20
2022-12-25T01:48:25.600Z,81.25
2022-12-25T01:50:59.052Z,81.42
2022-12-25T01:53:26.860Z,81.46
2022-12-25T01:55:58.598Z,81.71
2022-12-25T01:58:26.597Z,81.58
2022-12-25T02:00:54.552Z,81.66
2022-12-25T02:03:22.970Z,81.71
2022-12-25T02:05:51.628Z,81.73
2022-12-25T02:08:20.548Z,81.75
2022-12-25T02:10:48.231Z,82.05
2022-12-25T02:13:18.090Z,81.80
2022-12-25T02:15:57.249Z,81.83
2022-12-25T02:18:44.534Z,81.78
2022-12-25T02:21:59.304Z,81.87
2022-12-25T02:25:23.732Z,81.89
2022-12-25T02:28:01.837Z,81.92
2022-12-25T02:30:32.508Z,82.11
2022-12-25T02:33:22.614Z,82.11
2022-12-25T02:35:53.541Z,81.96
2022-12-25T02:38:29.888Z,82.11
2022-12-25T02:41:00.350Z,82.15
2022-12-25T02:43:52.629Z,82.36
2022-12-25T02:46:41.663Z,82.00
2022-12-25T02:49:45.994Z,82.39
2022-12-25T02:52:36.446Z,82.08
2022-12-25T02:55:29.150Z,82.37
2022-12-25T02:58:17.328Z,82.35
2022-12-25T03:01:06.655Z,81.98
2022-12-25T03:03:54.367Z,82.16
2022-12-25T03:06:41.553Z,82.25
2022-12-25T03:09:31.458Z,81.95
2022-12-25T03:12:10.911Z,81.83
2022-12-25T03:14:57.373Z,81.47
2022-12-25T03:17:24.833Z,81.28
2022-12-25T03:20:10.373Z,81.03
2022-12-25T03:22:56.802Z,80.92
2022-12-25T03:25:42.920Z,80.70
2022-12-25T03:28:10.546Z,80.70
2022-12-25T03:31:02.669Z,80.65
2022-12-25T03:33:46.701Z,80.76
2022-12-25T03:36:25.551Z,80.60
2022-12-25T03:39:23.564Z,80.87
2022-12-25T03:42:11.936Z,80.78
2022-12-25T03:45:13.128Z,80.63
2022-12-25T03:47:54.137Z,80.69
2022-12-25T03:50:45.094Z,81.02
2022-12-25T03:53:38.977Z,81.01
2022-12-25T03:56:25.398Z,81.04
2022-12-25T03:59:17.777Z,81.23
2022-12-25T04:02:07.094Z,81.26
2022-12-25T04:04:52.572Z,81.14
2022-12-25T04:07:38.570Z,80.97
2022-12-25T04:10:25.402Z,80.92
2022-12-25T04:13:11.575Z,81.06
2022-12-25T04:15:57.661Z,80.90
2022-12-25T04:18:43.662Z,81.16
2022-12-25T04:21:30.155Z,80.95
2022-12-25T04:24:16.311Z,81.04
2022-12-25T04:27:06.588Z,81.23
2022-12-25T04:29:52.590Z,81.40
2022-12-25T04:32:38.689Z,81.56
2022-12-25T04:35:25.288Z,81.64
2022-12-25T04:37:52.969Z,81.35
2022-12-25T04:40:20.689Z,81.27
2022-12-25T04:42:50.693Z,81.36
2022-12-25T04:45:18.587Z,81.60
2022-12-25T04:47:46.416Z,81.31
2022-12-25T04:50:13.675Z,81.48
2022-12-25T04:52:41.747Z,81.57
2022-12-25T04:55:10.444Z,81.80
2022-12-25T04:57:38.712Z,81.88
2022-12-25T05:00:07.071Z,81.83
2022-12-25T05:02:34.852Z,81.92
2022-12-25T05:05:02.591Z,82.05
2022-12-25T05:07:30.376Z,81.88
2022-12-25T05:09:58.626Z,82.21
2022-12-25T05:12:26.163Z,82.75
2022-12-25T05:14:53.604Z,82.93
2022-12-25T05:17:21.009Z,82.98
2022-12-25T05:19:48.389Z,83.10
2022-12-25T05:22:16.008Z,83.32
2022-12-25T05:24:43.392Z,83.39
2022-12-25T05:27:11.007Z,83.55
2022-12-25T05:29:38.601Z,83.91
2022-12-25T05:32:06.211Z,83.89
2022-12-25T05:34:33.683Z,84.14
2022-12-25T05:37:01.438Z,84.38
2022-12-25T05:39:28.693Z,84.12
2022-12-25T05:41:56.442Z,84.18
2022-12-25T05:44:23.952Z,83.83
2022-12-25T05:46:51.481Z,83.81
2022-12-25T05:49:18.726Z,83.72
2022-12-25T05:51:46.453Z,83.33
2022-12-25T05:54:14.023Z,83.46
2022-12-25T05:56:41.607Z,83.44
2022-12-25T05:59:09.050Z,83.66
2022-12-25T06:01:36.681Z,83.61
2022-12-25T06:04:10.202Z,83.61
2022-12-25T06:06:39.785Z,84.12
2022-12-25T06:09:07.188Z,84.33
2022-12-25T06:11:34.741Z,84.68
2022-12-25T06:14:02.259Z,84.80
2022-12-25T06:16:37.266Z,84.67
2022-12-25T06:19:05.619Z,84.90
2022-12-25T06:21:33.614Z,85.42
2022-12-25T06:24:02.169Z,85.50
2022-12-25T06:26:29.746Z,85.27
2022-12-25T06:28:57.345Z,85.00
2022-12-25T06:31:24.816Z,84.46
2022-12-25T06:33:52.476Z,85.46
2022-12-25T06:36:22.552Z,85.80
2022-12-25T06:38:50.473Z,86.37
2022-12-25T06:41:19.999Z,86.57
2022-12-25T06:43:52.548Z,86.47
2022-12-25T06:46:21.024Z,85.58
2022-12-25T06:48:50.022Z,84.52
2022-12-25T06:51:22.928Z,84.29
2022-12-25T06:53:51.216Z,84.57
2022-12-25T06:56:22.080Z,84.62
2022-12-25T06:58:57.476Z,85.19
2022-12-25T07:01:30.663Z,85.96
2022-12-25T07:04:01.495Z,86.01
2022-12-25T07:06:29.479Z,86.19
2022-12-25T07:08:57.065Z,86.59
2022-12-25T07:11:24.845Z,84.90
2022-12-25T07:13:52.287Z,84.41
2022-12-25T07:16:20.584Z,84.43
2022-12-25T07:18:48.218Z,84.24
2022-12-25T07:21:18.492Z,85.25
2022-12-25T07:23:47.317Z,84.62
2022-12-25T07:26:15.086Z,84.40
2022-12-25T07:28:42.787Z,84.55
2022-12-25T07:31:14.977Z,84.95
2022-12-25T07:33:43.036Z,84.97
2022-12-25T07:36:12.911Z,82.72
2022-12-25T07:38:44.245Z,82.95
2022-12-25T07:41:13.395Z,81.35
2022-12-25T07:43:41.003Z,80.17
2022-12-25T07:46:08.815Z,79.10
2022-12-25T07:48:37.076Z,77.39
2022-12-25T07:51:06.639Z,75.73
2022-12-25T07:53:35.081Z,74.20
2022-12-25T07:56:05.499Z,72.55
2022-12-25T07:58:33.331Z,70.61
2022-12-25T08:01:19.796Z,68.67
2022-12-25T08:03:54.984Z,67.90
2022-12-25T08:06:25.322Z,66.73
2022-12-25T08:08:52.959Z,64.70
2022-12-25T08:11:20.523Z,63.54
2022-12-25T08:13:48.094Z,63.08
2022-12-25T08:16:15.762Z,63.03
2022-12-25T08:18:43.758Z,61.72
2022-12-25T08:21:13.753Z,60.96
2022-12-25T08:23:43.891Z,60.21
2022-12-25T08:26:13.659Z,59.27
2022-12-25T08:28:41.111Z,58.19
2022-12-25T08:31:29.886Z,58.54
2022-12-25T08:33:58.590Z,56.66
2022-12-25T08:36:26.126Z,55.79
2022-12-25T08:39:00.451Z,56.55
2022-12-25T08:41:30.541Z,57.00
2022-12-25T08:43:58.343Z,56.97
2022-12-25T08:46:26.191Z,56.39
2022-12-25T08:48:53.760Z,56.14
2022-12-25T08:51:22.034Z,55.34
2022-12-25T08:53:50.591Z,54.44
2022-12-25T08:56:18.803Z,53.69
2022-12-25T08:58:46.692Z,52.94
2022-12-25T09:01:14.180Z,51.69
2022-12-25T09:03:42.224Z,51.07
2022-12-25T09:06:13.352Z,49.97
2022-12-25T09:08:48.008Z,49.26
2022-12-25T09:11:17.087Z,49.02
2022-12-25T09:13:44.258Z,48.95
2022-12-25T09:16:15.704Z,47.86
2022-12-25T09:18:43.388Z,47.97
2022-12-25T09:21:13.239Z,47.98
2022-12-25T09:23:40.786Z,48.69
2022-12-25T09:26:11.246Z,47.36
2022-12-25T09:28:38.797Z,48.04
2022-12-25T09:31:06.586Z,47.68
2022-12-25T09:33:34.129Z,47.55
2022-12-25T09:36:03.922Z,47.86
2022-12-25T09:38:32.134Z,47.55
2022-12-25T09:41:07.899Z,47.30
2022-12-25T09:43:41.135Z,47.42
2022-12-25T09:46:15.108Z,47.79
2022-12-25T09:48:48.939Z,48.86
2022-12-25T09:51:17.273Z,49.70
2022-12-25T09:53:52.568Z,49.40
2022-12-25T09:56:26.805Z,47.51
2022-12-25T09:58:54.808Z,46.57
2022-12-25T10:01:36.506Z,45.08
2022-12-25T10:04:14.371Z,43.53
2022-12-25T10:07:19.142Z,42.68
2022-12-25T10:10:21.569Z,40.90
2022-12-25T10:13:07.288Z,39.33
2022-12-25T10:16:12.178Z,38.14
2022-12-25T10:18:52.808Z,38.00
2022-12-25T10:21:20.762Z,37.00
2022-12-25T10:23:49.151Z,37.07
2022-12-25T10:26:19.822Z,35.82
2022-12-25T10:29:09.955Z,36.59
2022-12-25T10:31:37.598Z,36.83
2022-12-25T10:34:06.400Z,36.03
2022-12-25T10:36:34.292Z,35.59
2022-12-25T10:39:01.834Z,35.44
2022-12-25T10:42:06.078Z,35.46
2022-12-25T10:44:34.823Z,35.69
2022-12-25T10:47:03.672Z,35.85
2022-12-25T10:49:33.586Z,36.76
2022-12-25T10:52:02.915Z,37.48
2022-12-25T10:54:35.989Z,37.22
2022-12-25T10:57:04.430Z,35.90
2022-12-25T10:59:36.169Z,35.08
2022-12-25T11:02:13.178Z,34.61
2022-12-25T11:04:40.980Z,34.60
2022-12-25T11:07:15.834Z,34.39
2022-12-25T11:09:50.843Z,35.51
2022-12-25T11:12:19.177Z,35.70
2022-12-25T11:15:01.447Z,34.72
2022-12-25T11:17:28.985Z,34.74
2022-12-25T11:19:58.861Z,34.66
2022-12-25T11:22:27.570Z,32.98
2022-12-25T11:24:55.455Z,32.41
2022-12-25T11:27:30.609Z,31.13
2022-12-25T11:30:03.430Z,31.15
2022-12-25T11:32:47.079Z,31.17
2022-12-25T11:35:17.805Z,30.35
2022-12-25T11:37:51.002Z,29.56
2022-12-25T11:40:25.793Z,28.60
2022-12-25T11:43:04.103Z,31.04
2022-12-25T11:45:42.163Z,31.14
2022-12-25T11:48:16.613Z,32.72
2022-12-25T11:50:59.450Z,32.13
2022-12-25T11:53:35.172Z,33.08
2022-12-25T11:56:07.024Z,33.93
2022-12-25T11:58:50.115Z,34.45
2022-12-25T12:01:48.317Z,35.15
2022-12-25T12:04:42.386Z,35.41
2022-12-25T12:07:25.828Z,35.27
2022-12-25T12:10:38.120Z,35.28
2022-12-25T12:13:14.458Z,34.69
2022-12-25T12:15:45.634Z,35.22
2022-12-25T12:18:23.023Z,35.24
2022-12-25T12:21:01.629Z,35.79
2022-12-25T12:23:30.905Z,35.97
2022-12-25T12:25:58.465Z,35.50
2022-12-25T12:28:35.032Z,35.75
2022-12-25T12:31:05.315Z,36.38
2022-12-25T12:33:38.619Z,38.68
2022-12-25T12:36:06.733Z,41.84
2022-12-25T12:38:34.929Z,44.42
2022-12-25T12:41:05.452Z,46.41
2022-12-25T12:43:45.355Z,47.38
2022-12-25T12:46:27.907Z,48.51
2022-12-25T12:49:29.924Z,49.95
2022-12-25T12:52:21.929Z,50.75
2022-12-25T12:55:13.314Z,51.79
2022-12-25T12:57:41.693Z,52.64
2022-12-25T13:00:17.928Z,53.82
2022-12-25T13:03:14.965Z,53.89
2022-12-25T13:05:54.934Z,53.99
2022-12-25T13:08:50.142Z,55.10
2022-12-25T13:11:24.950Z,55.44
2022-12-25T13:13:54.753Z,55.34
2022-12-25T13:16:25.562Z,55.63
2022-12-25T13:18:54.500Z,54.25
2022-12-25T13:21:29.506Z,50.87
2022-12-25T13:24:01.337Z,49.59
2022-12-25T13:26:29.662Z,47.88
2022-12-25T13:28:57.664Z,47.43
2022-12-25T13:31:29.985Z,46.55
2022-12-25T13:34:03.966Z,47.45
2022-12-25T13:36:37.250Z,47.89
2022-12-25T13:39:08.177Z,48.55
2022-12-25T13:42:01.340Z,49.06
2022-12-25T13:44:31.667Z,49.80
2022-12-25T13:47:24.755Z,50.54
2022-12-25T13:49:54.958Z,50.66
2022-12-25T13:52:34.679Z,52.07
2022-12-25T13:55:13.979Z,52.64
2022-12-25T13:57:49.523Z,53.16
2022-12-25T14:00:20.788Z,52.22
2022-12-25T14:02:49.675Z,53.43
2022-12-25T14:05:29.366Z,54.04
2022-12-25T14:07:59.738Z,54.90
2022-12-25T14:10:35.263Z,56.16
2022-12-25T14:13:05.772Z,56.52
2022-12-25T14:15:33.992Z,57.58
2022-12-25T14:18:01.984Z,57.25
2022-12-25T14:20:31.987Z,56.30
2022-12-25T14:23:00.994Z,57.07
2022-12-25T14:25:42.852Z,55.17
2022-12-25T14:28:19.274Z,55.46
2022-12-25T14:30:46.944Z,52.56
2022-12-25T14:33:20.284Z,54.82
2022-12-25T14:35:48.381Z,56.25
2022-12-25T14:38:28.260Z,56.69
2022-12-25T14:41:08.006Z,57.21
2022-12-25T14:43:36.700Z,57.91
2022-12-25T14:46:08.259Z,58.95
2022-12-25T14:48:35.826Z,59.27
2022-12-25T14:51:09.950Z,58.95
2022-12-25T14:53:47.007Z,59.79
2022-12-25T14:56:20.158Z,59.99
2022-12-25T14:58:51.136Z,59.68
2022-12-25T15:01:28.089Z,60.21
2022-12-25T15:04:08.650Z,60.86
2022-12-25T15:06:37.359Z,61.65
2022-12-25T15:09:13.562Z,62.30
2022-12-25T15:11:41.406Z,62.88
2022-12-25T15:14:08.896Z,63.58
2022-12-25T15:16:47.398Z,64.64
2022-12-25T15:19:25.379Z,64.45
2022-12-25T15:21:54.770Z,64.73
2022-12-25T15:24:22.973Z,64.87
2022-12-25T15:26:50.030Z,65.28
2022-12-25T15:29:23.646Z,66.03
2022-12-25T15:32:05.157Z,67.13
2022-12-25T15:34:32.724Z,67.56
2022-12-25T15:37:00.575Z,67.77
2022-12-25T15:39:27.977Z,67.73
2022-12-25T15:42:14.612Z,68.26
2022-12-25T15:44:42.749Z,68.29
2022-12-25T15:47:14.172Z,68.54
2022-12-25T15:49:41.874Z,69.03
2022-12-25T15:52:13.309Z,69.33
2022-12-25T15:54:40.736Z,69.42
2022-12-25T15:57:18.800Z,69.76
2022-12-25T15:59:46.532Z,69.90
2022-12-25T16:02:17.182Z,69.93
2022-12-25T16:04:45.243Z,70.22
2022-12-25T16:07:21.057Z,70.20
2022-12-25T16:09:48.595Z,70.42
2022-12-25T16:12:16.429Z,70.67
2022-12-25T16:14:43.873Z,71.47
2022-12-25T16:17:16.115Z,71.58
2022-12-25T16:19:45.079Z,71.55
2022-12-25T16:22:22.048Z,71.40
2022-12-25T16:24:50.439Z,71.72
2022-12-25T16:27:18.607Z,72.07
2022-12-25T16:29:46.184Z,71.42
2022-12-25T16:32:15.074Z,72.17
2022-12-25T16:34:43.008Z,71.95
2022-12-25T16:37:10.757Z,71.47
2022-12-25T16:39:38.261Z,71.83
2022-12-25T16:42:05.865Z,71.18
2022-12-25T16:44:36.599Z,70.77
2022-12-25T16:47:04.635Z,70.50
2022-12-25T16:49:32.447Z,70.63
2022-12-25T16:52:00.091Z,69.61
2022-12-25T16:54:27.900Z,69.76
2022-12-25T16:56:55.899Z,69.85
2022-12-25T16:59:23.769Z,70.11
2022-12-25T17:01:51.948Z,69.97
2022-12-25T17:04:19.767Z,69.94
2022-12-25T17:06:49.052Z,69.69
2022-12-25T17:09:16.639Z,69.77
2022-12-25T17:11:44.436Z,69.82
2022-12-25T17:14:11.773Z,69.99
2022-12-25T17:16:40.643Z,70.23
2022-12-25T17:19:13.467Z,70.18
2022-12-25T17:21:41.113Z,70.20
2022-12-25T17:24:09.927Z,70.43
2022-12-25T17:26:37.783Z,70.40
2022-12-25T17:29:05.084Z,70.86
2022-12-25T17:31:32.836Z,70.59
2022-12-25T17:34:01.924Z,70.50
2022-12-25T17:36:30.118Z,70.95
2022-12-25T17:39:00.374Z,71.09
2022-12-25T17:41:28.466Z,71.05
2022-12-25T17:43:56.129Z,71.42
2022-12-25T17:46:25.966Z,71.45
2022-12-25T17:48:55.789Z,71.81
2022-12-25T17:51:25.387Z,71.91
2022-12-25T17:53:55.478Z,72.15
2022-12-25T17:56:24.148Z,72.39
2022-12-25T17:58:53.138Z,72.73
2022-12-25T18:01:21.568Z,72.60
2022-12-25T18:03:49.705Z,72.68
2022-12-25T18:06:19.664Z,72.77
2022-12-25T18:08:47.664Z,72.88
2022-12-25T18:11:22.664Z,72.87
2022-12-25T18:13:52.481Z,72.63
2022-12-25T18:16:22.466Z,72.60
2022-12-25T18:18:52.539Z,72.52
2022-12-25T18:21:22.214Z,72.50
2022-12-25T18:23:50.541Z,72.50
2022-12-25T18:26:19.154Z,72.69
2022-12-25T18:28:47.164Z,72.59
2022-12-25T18:31:17.535Z,72.47
2022-12-25T18:33:45.508Z,72.07
2022-12-25T18:36:14.695Z,72.14
2022-12-25T18:38:42.972Z,72.19
2022-12-25T18:41:11.508Z,72.24
2022-12-25T18:43:52.288Z,72.29
2022-12-25T18:46:26.845Z,72.22
2022-12-25T18:48:55.689Z,72.36
2022-12-25T18:51:23.577Z,72.69
2022-12-25T18:53:51.729Z,72.85
2022-12-25T18:56:19.492Z,72.88
2022-12-25T18:58:47.970Z,73.27
2022-12-25T19:01:22.831Z,73.21
2022-12-25T19:03:51.821Z,73.46
2022-12-25T19:06:20.520Z,73.53
2022-12-25T19:08:48.514Z,73.67
2022-12-25T19:11:16.502Z,73.33
2022-12-25T19:13:44.309Z,73.51
2022-12-25T19:16:12.563Z,73.50
2022-12-25T19:18:41.087Z,73.39
2022-12-25T19:21:09.676Z,73.31
2022-12-25T19:23:38.318Z,72.90
2022-12-25T19:26:07.458Z,72.66
2022-12-25T19:28:35.836Z,72.48
2022-12-25T19:31:03.796Z,72.43
2022-12-25T19:33:32.407Z,71.91
2022-12-25T19:36:03.598Z,72.04
2022-12-25T19:38:31.210Z,71.85
2022-12-25T19:41:01.527Z,71.82
2022-12-25T19:43:30.418Z,71.55
2022-12-25T19:45:58.046Z,71.61
2022-12-25T19:48:26.080Z,71.60
2022-12-25T19:50:53.554Z,71.50
2022-12-25T19:53:23.647Z,71.82
2022-12-25T19:55:52.792Z,71.57
2022-12-25T19:58:21.335Z,71.96
2022-12-25T20:01:00.066Z,71.60
2022-12-25T20:03:27.976Z,71.74
2022-12-25T20:05:55.613Z,71.64
2022-12-25T20:08:23.306Z,71.80
2022-12-25T20:10:51.218Z,71.74
2022-12-25T20:13:18.858Z,71.63
2022-12-25T20:15:46.747Z,71.29
2022-12-25T20:18:14.734Z,71.51
2022-12-25T20:20:43.046Z,71.22
2022-12-25T20:23:10.865Z,71.14
2022-12-25T20:25:42.007Z,71.09
2022-12-25T20:28:09.738Z,71.05
2022-12-25T20:30:40.505Z,71.35
2022-12-25T20:33:08.040Z,71.70
2022-12-25T20:35:35.752Z,71.92
2022-12-25T20:38:03.443Z,71.81
2022-12-25T20:40:32.483Z,71.96
2022-12-25T20:43:09.450Z,72.12
2022-12-25T20:45:42.807Z,71.87
2022-12-25T20:48:10.453Z,72.05
2022-12-25T20:50:37.755Z,71.88
2022-12-25T20:53:05.039Z,71.77
2022-12-25T20:55:32.760Z,71.85
2022-12-25T20:58:00.236Z,72.03
2022-12-25T21:00:27.760Z,71.65
2022-12-25T21:02:55.354Z,71.53
2022-12-25T21:05:22.767Z,71.39
2022-12-25T21:07:50.243Z,71.62
2022-12-25T21:10:17.767Z,71.84
2022-12-25T21:12:45.140Z,71.81
2022-12-25T21:15:15.712Z,72.21
2022-12-25T21:17:43.460Z,72.23
2022-12-25T21:20:11.567Z,72.09
2022-12-25T21:22:38.973Z,71.88
2022-12-25T21:25:06.672Z,71.80
2022-12-25T21:27:34.267Z,71.65
2022-12-25T21:30:15.313Z,71.51
2022-12-25T21:33:01.561Z,71.63
2022-12-25T21:35:29.081Z,71.58
2022-12-25T21:37:56.781Z,71.58
2022-12-25T21:40:24.260Z,71.54
2022-12-25T21:42:52.494Z,71.43
2022-12-25T21:45:20.279Z,71.50
2022-12-25T21:48:01.606Z,71.68
2022-12-25T21:50:48.901Z,71.47
2022-12-25T21:53:17.269Z,71.50
2022-12-25T21:55:59.633Z,71.60
2022-12-25T21:58:26.946Z,71.62
2022-12-25T22:00:54.454Z,71.31
2022-12-25T22:03:21.899Z,71.52
2022-12-25T22:06:07.712Z,71.31
2022-12-25T22:08:34.874Z,71.31
2022-12-25T22:11:05.800Z,71.20
2022-12-25T22:13:51.575Z,71.36
2022-12-25T22:16:37.506Z,71.34
2022-12-25T22:19:23.578Z,71.30
2022-12-25T22:21:51.813Z,71.15
2022-12-25T22:24:19.091Z,71.07
2022-12-25T22:26:46.743Z,71.28
2022-12-25T22:29:13.920Z,71.22
2022-12-25T22:31:46.747Z,71.13
2022-12-25T22:34:16.297Z,71.26
2022-12-25T22:36:43.586Z,71.32
2022-12-25T22:39:10.818Z,70.94
2022-12-25T22:41:38.027Z,71.08
2022-12-25T22:44:20.882Z,71.12
2022-12-25T22:46:48.740Z,71.03
2022-12-25T22:49:16.732Z,71.52
2022-12-25T22:51:44.648Z,71.30
2022-12-25T22:54:16.658Z,71.32
2022-12-25T22:56:45.511Z,71.40
2022-12-25T22:59:14.119Z,71.38
2022-12-25T23:01:41.933Z,71.47
2022-12-25T23:04:10.225Z,71.31
2022-12-25T23:06:37.873Z,71.32
2022-12-25T23:09:06.599Z,71.52
2022-12-25T23:11:35.325Z,71.43
2022-12-25T23:14:20.836Z,71.52
2022-12-25T23:16:48.141Z,71.66
2022-12-25T23:19:33.940Z,71.64
2022-12-25T23:22:20.839Z,71.56
2022-12-25T23:25:06.676Z,71.80
2022-12-25T23:27:34.612Z,71.89
2022-12-25T23:30:02.176Z,71.91
2022-12-25T23:32:29.609Z,72.14
2022-12-25T23:34:57.138Z,72.33
2022-12-25T23:37:24.612Z,71.95
2022-12-25T23:39:52.120Z,72.26
2022-12-25T23:42:19.609Z,72.25
2022-12-25T23:44:47.167Z,72.15
2022-12-25T23:47:14.790Z,72.34
2022-12-25T23:49:42.692Z,72.08
2022-12-25T23:52:12.952Z,72.22
2022-12-25T23:54:40.293Z,72.27
2022-12-25T23:57:07.857Z,72.33
2022-12-25T23:59:35.582Z,72.50
